createdAt,value
2019-02-28T00:00:43.629Z,4.06
2019-02-28T00:01:46.275Z,4.14
2019-02-28T00:02:43.731Z,4.12
2019-02-28T00:03:43.762Z,4.26
2019-02-28T00:04:43.806Z,4.24
2019-02-28T00:05:43.838Z,4.25
2019-02-28T00:06:44.168Z,4.28
2019-02-28T00:07:43.946Z,4.28
2019-02-28T00:08:44.046Z,4.21
2019-02-28T00:09:44.014Z,4.22
2019-02-28T00:10:44.064Z,4.29
2019-02-28T00:11:44.089Z,4.25
2019-02-28T00:12:45.262Z,4.18
2019-02-28T00:13:44.176Z,4.21
2019-02-28T00:14:45.546Z,4.12
2019-02-28T00:15:44.342Z,4.08
2019-02-28T00:16:44.299Z,4.08
2019-02-28T00:17:44.360Z,4.18
2019-02-28T00:18:44.383Z,4.10
2019-02-28T00:19:44.425Z,4.03
2019-02-28T00:20:44.469Z,4.12
2019-02-28T00:21:44.510Z,4.04
2019-02-28T00:22:48.088Z,4.04
2019-02-28T00:23:44.616Z,3.98
2019-02-28T00:24:44.638Z,3.98
2019-02-28T00:25:44.684Z,3.89
2019-02-28T00:26:47.621Z,3.88
2019-02-28T00:27:44.778Z,3.82
2019-02-28T00:28:44.820Z,3.75
2019-02-28T00:29:44.945Z,3.76
2019-02-28T00:30:44.888Z,3.80
2019-02-28T00:31:49.317Z,3.78
2019-02-28T00:32:44.999Z,3.80
2019-02-28T00:33:45.030Z,3.78
2019-02-28T00:34:45.053Z,3.78
2019-02-28T00:35:45.486Z,3.82
2019-02-28T00:36:45.146Z,3.88
2019-02-28T00:37:45.177Z,3.90
2019-02-28T00:38:45.235Z,3.76
2019-02-28T00:39:45.270Z,3.86
2019-02-28T00:40:45.305Z,3.86
2019-02-28T00:41:45.343Z,3.82
2019-02-28T00:42:47.999Z,3.76
2019-02-28T00:43:45.564Z,3.78
2019-02-28T00:44:45.471Z,3.80
2019-02-28T00:45:45.512Z,3.79
2019-02-28T00:46:45.559Z,3.75
2019-02-28T00:47:47.567Z,3.68
2019-02-28T00:48:45.676Z,3.58
2019-02-28T00:49:45.707Z,3.60
2019-02-28T00:50:45.731Z,3.53
2019-02-28T00:51:45.764Z,3.33
2019-02-28T00:52:45.806Z,3.34
2019-02-28T00:53:45.844Z,3.34
2019-02-28T00:54:45.915Z,3.25
2019-02-28T00:55:46.220Z,3.27
2019-02-28T00:56:51.555Z,3.25
2019-02-28T00:57:46.011Z,3.25
2019-02-28T00:58:46.052Z,3.31
2019-02-28T00:59:46.128Z,3.31
2019-02-28T01:00:46.132Z,3.31
2019-02-28T01:01:46.877Z,3.34
2019-02-28T01:02:49.155Z,3.39
2019-02-28T01:03:46.258Z,3.36
2019-02-28T01:04:46.341Z,3.42
2019-02-28T01:05:46.337Z,3.36
2019-02-28T01:06:46.381Z,3.34
2019-02-28T01:07:48.114Z,3.34
2019-02-28T01:08:46.464Z,3.42
2019-02-28T01:09:46.553Z,3.33
2019-02-28T01:10:46.546Z,3.39
2019-02-28T01:11:46.605Z,3.34
2019-02-28T01:12:46.666Z,3.43
2019-02-28T01:13:46.684Z,3.30
2019-02-28T01:14:46.732Z,3.39
2019-02-28T01:15:46.771Z,3.34
2019-02-28T01:16:46.801Z,3.40
2019-02-28T01:17:46.837Z,3.39
2019-02-28T01:18:46.876Z,3.39
2019-02-28T01:19:46.930Z,3.31
2019-02-28T01:20:50.055Z,3.36
2019-02-28T01:21:47.007Z,3.31
2019-02-28T01:22:47.047Z,3.33
2019-02-28T01:23:47.086Z,3.39
2019-02-28T01:24:47.139Z,3.31
2019-02-28T01:25:47.188Z,3.31
2019-02-28T01:26:47.427Z,3.33
2019-02-28T01:27:47.247Z,3.39
2019-02-28T01:28:47.290Z,3.30
2019-02-28T01:29:47.330Z,3.28
2019-02-28T01:30:47.493Z,3.24
2019-02-28T01:31:47.425Z,3.18
2019-02-28T01:32:50.256Z,3.31
2019-02-28T01:33:47.495Z,3.24
2019-02-28T01:34:47.536Z,3.13
2019-02-28T01:35:47.598Z,3.21
2019-02-28T01:36:48.671Z,3.23
2019-02-28T01:37:47.659Z,3.23
2019-02-28T01:38:47.703Z,3.25
2019-02-28T01:39:47.744Z,3.20
2019-02-28T01:40:47.809Z,3.23
2019-02-28T01:41:47.827Z,3.16
2019-02-28T01:42:47.866Z,3.09
2019-02-28T01:43:47.909Z,3.13
2019-02-28T01:44:47.947Z,3.15
2019-02-28T01:45:48.027Z,3.10
2019-02-28T01:46:48.632Z,3.16
2019-02-28T01:47:48.074Z,3.10
2019-02-28T01:48:48.111Z,3.12
2019-02-28T01:49:48.151Z,2.98
2019-02-28T01:50:48.211Z,3.00
2019-02-28T01:51:48.256Z,3.06
2019-02-28T01:52:48.283Z,3.03
2019-02-28T01:53:50.410Z,2.95
2019-02-28T01:54:48.360Z,2.95
2019-02-28T01:55:48.400Z,2.92
2019-02-28T01:56:48.464Z,2.97
2019-02-28T01:57:48.485Z,2.98
2019-02-28T01:58:50.345Z,2.92
2019-02-28T01:59:48.564Z,2.92
2019-02-28T02:00:48.730Z,2.94
2019-02-28T02:01:48.662Z,2.88
2019-02-28T02:02:48.683Z,2.91
2019-02-28T02:03:48.725Z,2.81
2019-02-28T02:04:48.772Z,2.76
2019-02-28T02:05:51.903Z,2.67
2019-02-28T02:06:48.870Z,2.70
2019-02-28T02:07:48.891Z,2.58
2019-02-28T02:08:48.931Z,2.76
2019-02-28T02:09:48.979Z,2.59
2019-02-28T02:10:49.013Z,2.63
2019-02-28T02:11:49.075Z,2.63
2019-02-28T02:12:49.110Z,2.58
2019-02-28T02:13:49.133Z,2.56
2019-02-28T02:14:49.171Z,2.61
2019-02-28T02:15:51.430Z,2.56
2019-02-28T02:16:49.273Z,2.59
2019-02-28T02:17:49.314Z,2.63
2019-02-28T02:18:49.339Z,2.63
2019-02-28T02:19:49.486Z,2.58
2019-02-28T02:20:49.424Z,2.48
2019-02-28T02:21:49.456Z,2.63
2019-02-28T02:22:49.520Z,2.44
2019-02-28T02:23:52.733Z,2.46
2019-02-28T02:24:49.580Z,2.59
2019-02-28T02:25:49.618Z,2.58
2019-02-28T02:26:49.664Z,2.52
2019-02-28T02:27:53.014Z,2.45
2019-02-28T02:28:49.750Z,2.46
2019-02-28T02:29:49.783Z,2.46
2019-02-28T02:30:50.922Z,2.38
2019-02-28T02:31:49.865Z,2.28
2019-02-28T02:32:49.938Z,2.28
2019-02-28T02:33:52.502Z,2.26
2019-02-28T02:34:49.998Z,2.33
2019-02-28T02:35:50.024Z,2.28
2019-02-28T02:36:54.330Z,2.41
2019-02-28T02:37:50.132Z,2.33
2019-02-28T02:38:50.159Z,2.40
2019-02-28T02:39:51.279Z,2.40
2019-02-28T02:40:50.233Z,2.49
2019-02-28T02:41:50.269Z,2.45
2019-02-28T02:42:50.357Z,2.48
2019-02-28T02:43:50.355Z,2.44
2019-02-28T02:44:50.391Z,2.51
2019-02-28T02:45:50.433Z,2.52
2019-02-28T02:46:55.586Z,2.49
2019-02-28T02:47:50.599Z,2.45
2019-02-28T02:48:50.566Z,2.48
2019-02-28T02:49:55.977Z,2.45
2019-02-28T02:50:50.634Z,2.51
2019-02-28T02:51:50.825Z,2.48
2019-02-28T02:52:50.760Z,2.52
2019-02-28T02:53:50.755Z,2.52
2019-02-28T02:54:52.123Z,2.58
2019-02-28T02:55:50.835Z,2.56
2019-02-28T02:56:50.880Z,2.53
2019-02-28T02:57:51.910Z,2.49
2019-02-28T02:58:50.985Z,2.56
2019-02-28T02:59:51.000Z,2.51
2019-02-28T03:00:51.586Z,2.53
2019-02-28T03:01:51.079Z,2.37
2019-02-28T03:02:51.124Z,2.53
2019-02-28T03:03:51.183Z,2.46
2019-02-28T03:04:57.991Z,2.31
2019-02-28T03:05:51.237Z,2.31
2019-02-28T03:06:51.288Z,2.28
2019-02-28T03:07:51.326Z,2.31
2019-02-28T03:08:51.389Z,2.27
2019-02-28T03:09:51.403Z,2.10
2019-02-28T03:10:52.759Z,1.98
2019-02-28T03:11:51.482Z,1.79
2019-02-28T03:12:51.531Z,1.69
2019-02-28T03:13:51.590Z,1.73
2019-02-28T03:14:51.611Z,1.68
2019-02-28T03:15:51.677Z,1.68
2019-02-28T03:16:51.685Z,1.78
2019-02-28T03:17:51.724Z,1.82
2019-02-28T03:18:56.940Z,1.90
2019-02-28T03:19:51.803Z,2.23
2019-02-28T03:20:51.845Z,2.38
2019-02-28T03:21:52.822Z,2.49
2019-02-28T03:22:52.043Z,2.69
2019-02-28T03:23:51.995Z,2.94
2019-02-28T03:24:52.352Z,2.98
2019-02-28T03:25:52.046Z,3.06
2019-02-28T03:26:52.103Z,3.12
2019-02-28T03:27:56.495Z,3.18
2019-02-28T03:28:52.165Z,3.21
2019-02-28T03:29:52.238Z,3.23
2019-02-28T03:30:52.260Z,3.20
2019-02-28T03:31:56.429Z,3.15
2019-02-28T03:32:52.328Z,3.12
2019-02-28T03:33:52.367Z,3.10
2019-02-28T03:34:58.161Z,3.18
2019-02-28T03:35:52.450Z,3.15
2019-02-28T03:36:56.975Z,3.07
2019-02-28T03:37:52.532Z,3.05
2019-02-28T03:38:52.573Z,3.02
2019-02-28T03:39:52.630Z,3.05
2019-02-28T03:40:52.657Z,2.92
2019-02-28T03:41:53.106Z,2.94
2019-02-28T03:42:52.757Z,2.87
2019-02-28T03:43:52.776Z,2.88
2019-02-28T03:44:56.624Z,2.79
2019-02-28T03:45:52.858Z,2.84
2019-02-28T03:46:52.898Z,2.81
2019-02-28T03:47:58.427Z,2.69
2019-02-28T03:48:52.975Z,2.71
2019-02-28T03:49:53.044Z,2.67
2019-02-28T03:50:55.307Z,2.70
2019-02-28T03:51:53.099Z,2.67
2019-02-28T03:52:53.138Z,2.66
2019-02-28T03:53:55.920Z,2.69
2019-02-28T03:54:53.252Z,2.70
2019-02-28T03:55:53.270Z,2.76
2019-02-28T03:56:53.453Z,2.67
2019-02-28T03:57:53.339Z,2.63
2019-02-28T03:58:53.390Z,2.64
2019-02-28T03:59:56.797Z,2.61
2019-02-28T04:00:53.461Z,2.56
2019-02-28T04:01:53.510Z,2.58
2019-02-28T04:02:58.751Z,2.59
2019-02-28T04:03:53.583Z,2.51
2019-02-28T04:04:53.652Z,2.58
2019-02-28T04:05:53.664Z,2.58
2019-02-28T04:06:53.729Z,2.51
2019-02-28T04:07:55.028Z,2.63
2019-02-28T04:08:53.785Z,2.58
2019-02-28T04:09:53.855Z,2.59
2019-02-28T04:10:54.730Z,2.66
2019-02-28T04:11:53.915Z,2.56
2019-02-28T04:12:53.948Z,2.34
2019-02-28T04:13:56.080Z,2.30
2019-02-28T04:14:54.033Z,2.17
2019-02-28T04:16:07.521Z,2.10
2019-02-28T04:16:54.938Z,2.02
2019-02-28T04:17:54.148Z,1.93
2019-02-28T04:18:54.190Z,2.10
2019-02-28T04:19:58.772Z,2.10
2019-02-28T04:20:54.285Z,2.12
2019-02-28T04:21:54.340Z,2.22
2019-02-28T04:22:58.830Z,2.26
2019-02-28T04:23:54.397Z,2.23
2019-02-28T04:24:54.430Z,2.23
2019-02-28T04:25:57.010Z,2.27
2019-02-28T04:26:54.538Z,2.30
2019-02-28T04:27:54.556Z,2.40
2019-02-28T04:28:54.961Z,2.35
2019-02-28T04:29:54.632Z,2.28
2019-02-28T04:30:54.694Z,2.15
2019-02-28T04:31:54.739Z,2.20
2019-02-28T04:33:00.975Z,2.19
2019-02-28T04:33:54.793Z,2.10
2019-02-28T04:34:54.843Z,1.98
2019-02-28T04:35:56.893Z,1.94
2019-02-28T04:36:54.945Z,1.94
2019-02-28T04:37:54.955Z,1.89
2019-02-28T04:38:54.994Z,1.87
2019-02-28T04:39:55.032Z,1.94
2019-02-28T04:40:55.097Z,1.97
2019-02-28T04:41:55.124Z,1.94
2019-02-28T04:42:55.176Z,1.97
2019-02-28T04:43:55.206Z,1.91
2019-02-28T04:44:55.235Z,1.94
2019-02-28T04:45:57.688Z,1.97
2019-02-28T04:46:55.337Z,1.91
2019-02-28T04:47:55.374Z,1.99
2019-02-28T04:48:55.396Z,1.94
2019-02-28T04:49:56.845Z,1.97
2019-02-28T04:50:55.474Z,2.02
2019-02-28T04:51:55.530Z,2.02
2019-02-28T04:52:55.578Z,1.93
2019-02-28T04:53:55.594Z,1.93
2019-02-28T04:54:55.635Z,1.94
2019-02-28T04:55:55.675Z,1.97
2019-02-28T04:56:55.739Z,1.90
2019-02-28T04:57:55.777Z,1.80
2019-02-28T04:58:56.463Z,1.85
2019-02-28T04:59:55.834Z,1.94
2019-02-28T05:00:55.888Z,2.01
2019-02-28T05:01:55.924Z,2.13
2019-02-28T05:02:55.994Z,2.16
2019-02-28T05:03:56.019Z,2.16
2019-02-28T05:04:56.044Z,2.23
2019-02-28T05:05:56.086Z,2.28
2019-02-28T05:06:56.118Z,2.22
2019-02-28T05:07:56.178Z,2.16
2019-02-28T05:08:56.218Z,2.10
2019-02-28T05:09:56.242Z,1.97
2019-02-28T05:10:56.821Z,1.89
2019-02-28T05:11:56.318Z,1.83
2019-02-28T05:12:56.388Z,1.82
2019-02-28T05:13:56.402Z,1.75
2019-02-28T05:14:58.415Z,1.68
2019-02-28T05:15:56.475Z,1.73
2019-02-28T05:16:56.520Z,1.69
2019-02-28T05:17:56.870Z,1.76
2019-02-28T05:19:01.264Z,1.76
2019-02-28T05:19:56.646Z,1.71
2019-02-28T05:20:56.674Z,1.61
2019-02-28T05:21:56.722Z,1.51
2019-02-28T05:22:59.252Z,1.55
2019-02-28T05:23:56.832Z,1.61
2019-02-28T05:24:56.836Z,1.72
2019-02-28T05:25:56.875Z,1.62
2019-02-28T05:26:57.283Z,1.83
2019-02-28T05:27:56.961Z,1.73
2019-02-28T05:28:57.021Z,1.71
2019-02-28T05:29:57.039Z,1.78
2019-02-28T05:30:57.082Z,1.73
2019-02-28T05:31:58.157Z,1.78
2019-02-28T05:32:57.161Z,1.82
2019-02-28T05:33:57.222Z,1.78
2019-02-28T05:34:57.238Z,1.80
2019-02-28T05:36:00.287Z,1.78
2019-02-28T05:36:57.321Z,1.65
2019-02-28T05:37:57.363Z,1.62
2019-02-28T05:38:57.416Z,1.54
2019-02-28T05:39:57.440Z,1.58
2019-02-28T05:40:57.490Z,1.58
2019-02-28T05:41:57.514Z,1.58
2019-02-28T05:42:58.487Z,1.68
2019-02-28T05:43:57.623Z,1.64
2019-02-28T05:44:57.634Z,1.72
2019-02-28T05:45:59.389Z,1.72
2019-02-28T05:46:58.710Z,1.68
2019-02-28T05:47:57.756Z,1.64
2019-02-28T05:48:57.817Z,1.65
2019-02-28T05:49:57.856Z,1.69
2019-02-28T05:50:57.872Z,1.75
2019-02-28T05:51:58.973Z,1.75
2019-02-28T05:52:57.953Z,1.82
2019-02-28T05:53:58.002Z,1.76
2019-02-28T05:54:58.076Z,1.83
2019-02-28T05:55:59.732Z,1.72
2019-02-28T05:56:58.119Z,1.85
2019-02-28T05:57:58.152Z,1.85
2019-02-28T05:58:58.193Z,1.85
2019-02-28T06:00:01.221Z,1.85
2019-02-28T06:00:58.273Z,1.87
2019-02-28T06:01:58.308Z,1.87
2019-02-28T06:02:59.036Z,1.85
2019-02-28T06:04:02.780Z,1.78
2019-02-28T06:04:58.451Z,1.80
2019-02-28T06:05:58.469Z,1.78
2019-02-28T06:06:58.516Z,1.71
2019-02-28T06:08:00.553Z,1.58
2019-02-28T06:08:58.620Z,1.47
2019-02-28T06:09:58.646Z,1.37
2019-02-28T06:11:00.606Z,1.36
2019-02-28T06:11:58.712Z,1.24
2019-02-28T06:12:58.757Z,1.15
2019-02-28T06:13:58.811Z,1.21
2019-02-28T06:15:03.112Z,1.15
2019-02-28T06:15:58.909Z,1.15
2019-02-28T06:16:58.907Z,1.21
2019-02-28T06:17:58.962Z,1.29
2019-02-28T06:18:58.985Z,1.40
2019-02-28T06:19:59.056Z,1.43
2019-02-28T06:20:59.078Z,1.46
2019-02-28T06:21:59.527Z,1.46
2019-02-28T06:22:59.145Z,1.50
2019-02-28T06:23:59.186Z,1.54
2019-02-28T06:24:59.380Z,1.62
2019-02-28T06:25:59.540Z,1.58
2019-02-28T06:26:59.312Z,1.57
2019-02-28T06:27:59.344Z,1.51
2019-02-28T06:29:04.554Z,1.50
2019-02-28T06:29:59.429Z,1.46
2019-02-28T06:31:00.256Z,1.47
2019-02-28T06:31:59.521Z,1.58
2019-02-28T06:32:59.638Z,1.72
2019-02-28T06:33:59.590Z,1.76
2019-02-28T06:34:59.988Z,1.82
2019-02-28T06:35:59.693Z,1.82
2019-02-28T06:37:03.168Z,2.10
2019-02-28T06:37:59.755Z,2.52
2019-02-28T06:38:59.783Z,2.71
2019-02-28T06:39:59.826Z,2.95
2019-02-28T06:40:59.894Z,3.27
2019-02-28T06:41:59.907Z,3.75
2019-02-28T06:42:59.942Z,4.00
2019-02-28T06:43:59.982Z,4.25
2019-02-28T06:45:02.490Z,4.32
2019-02-28T06:46:00.082Z,4.06
2019-02-28T06:47:00.102Z,4.08
2019-02-28T06:48:00.142Z,4.12
2019-02-28T06:49:05.991Z,4.04
2019-02-28T06:50:00.258Z,4.04
2019-02-28T06:51:00.280Z,4.08
2019-02-28T06:52:00.315Z,3.98
2019-02-28T06:53:00.460Z,4.03
2019-02-28T06:54:00.402Z,3.86
2019-02-28T06:55:00.445Z,3.75
2019-02-28T06:56:00.496Z,3.54
2019-02-28T06:57:00.543Z,3.43
2019-02-28T06:58:00.563Z,3.16
2019-02-28T06:59:00.587Z,3.18
2019-02-28T07:00:00.718Z,3.10
2019-02-28T07:01:00.671Z,3.13
2019-02-28T07:02:00.767Z,3.20
2019-02-28T07:03:03.351Z,3.23
2019-02-28T07:04:00.829Z,3.30
2019-02-28T07:05:00.856Z,3.31
2019-02-28T07:06:01.811Z,3.33
2019-02-28T07:07:00.967Z,3.33
2019-02-28T07:08:00.958Z,3.50
2019-02-28T07:09:02.391Z,3.58
2019-02-28T07:10:01.037Z,3.61
2019-02-28T07:11:01.090Z,3.68
2019-02-28T07:12:01.149Z,3.75
2019-02-28T07:13:04.015Z,3.75
2019-02-28T07:14:01.258Z,3.78
2019-02-28T07:15:01.255Z,3.86
2019-02-28T07:16:01.287Z,3.96
2019-02-28T07:17:01.345Z,4.08
2019-02-28T07:18:01.389Z,4.10
2019-02-28T07:19:01.419Z,4.28
2019-02-28T07:20:01.983Z,4.39
2019-02-28T07:21:01.496Z,4.54
2019-02-28T07:22:01.536Z,4.64
2019-02-28T07:23:01.595Z,4.76
2019-02-28T07:24:02.446Z,4.95
2019-02-28T07:25:01.671Z,5.02
2019-02-28T07:26:01.719Z,5.17
2019-02-28T07:27:01.752Z,5.19
2019-02-28T07:28:02.504Z,5.32
2019-02-28T07:29:01.823Z,5.32
2019-02-28T07:30:01.874Z,5.48
2019-02-28T07:31:01.910Z,5.48
2019-02-28T07:32:01.953Z,5.57
2019-02-28T07:33:02.014Z,5.77
2019-02-28T07:34:02.031Z,5.73
2019-02-28T07:35:02.076Z,5.73
2019-02-28T07:36:02.135Z,5.77
2019-02-28T07:37:02.159Z,5.86
2019-02-28T07:38:02.228Z,6.09
2019-02-28T07:39:04.483Z,6.22
2019-02-28T07:40:02.310Z,6.46
2019-02-28T07:41:02.328Z,6.43
2019-02-28T07:42:03.048Z,6.59
2019-02-28T07:43:02.446Z,6.72
2019-02-28T07:44:02.467Z,6.95
2019-02-28T07:45:02.504Z,7.44
2019-02-28T07:46:04.515Z,8.22
2019-02-28T07:47:02.588Z,9.06
2019-02-28T07:48:02.787Z,9.76
2019-02-28T07:49:02.699Z,10.37
2019-02-28T07:50:02.723Z,10.65
2019-02-28T07:51:02.760Z,11.09
2019-02-28T07:52:02.815Z,11.41
2019-02-28T07:53:05.508Z,11.68
2019-02-28T07:54:02.919Z,11.83
2019-02-28T07:55:03.047Z,12.34
2019-02-28T07:56:03.826Z,12.39
2019-02-28T07:57:03.040Z,12.99
2019-02-28T07:58:03.083Z,13.15
2019-02-28T07:59:05.329Z,13.20
2019-02-28T08:00:03.176Z,13.56
2019-02-28T08:01:03.210Z,13.71
2019-02-28T08:02:03.987Z,14.04
2019-02-28T08:03:03.311Z,14.27
2019-02-28T08:04:03.387Z,14.12
2019-02-28T08:05:03.404Z,13.96
2019-02-28T08:06:04.765Z,14.27
2019-02-28T08:07:03.541Z,14.46
2019-02-28T08:08:03.553Z,14.50
2019-02-28T08:09:04.846Z,14.54
2019-02-28T08:10:03.697Z,14.62
2019-02-28T08:11:03.690Z,14.75
2019-02-28T08:12:03.747Z,15.09
2019-02-28T08:13:04.091Z,15.63
2019-02-28T08:14:03.834Z,15.88
2019-02-28T08:15:03.902Z,16.33
2019-02-28T08:16:03.979Z,16.37
2019-02-28T08:17:05.474Z,16.59
2019-02-28T08:18:05.769Z,16.31
2019-02-28T08:19:04.070Z,16.26
2019-02-28T08:20:04.141Z,16.20
2019-02-28T08:21:05.401Z,16.23
2019-02-28T08:22:04.215Z,16.31
2019-02-28T08:23:04.295Z,16.65
2019-02-28T08:24:05.484Z,16.83
2019-02-28T08:25:07.775Z,17.23
2019-02-28T08:26:04.420Z,17.40
2019-02-28T08:27:04.483Z,17.66
2019-02-28T08:28:04.512Z,17.88
2019-02-28T08:29:07.929Z,17.66
2019-02-28T08:30:04.647Z,16.88
2019-02-28T08:31:04.664Z,16.93
2019-02-28T08:32:07.857Z,17.11
2019-02-28T08:33:04.773Z,17.13
2019-02-28T08:34:04.816Z,17.25
2019-02-28T08:35:04.886Z,16.85
2019-02-28T08:36:08.498Z,17.11
2019-02-28T08:37:04.965Z,16.67
2019-02-28T08:38:06.719Z,16.22
2019-02-28T08:39:06.061Z,16.11
2019-02-28T08:40:05.144Z,16.20
2019-02-28T08:41:06.474Z,15.88
2019-02-28T08:42:05.236Z,16.07
2019-02-28T08:43:05.282Z,16.52
2019-02-28T08:44:05.321Z,16.93
2019-02-28T08:45:05.390Z,16.71
2019-02-28T08:46:09.659Z,16.45
2019-02-28T08:47:05.481Z,16.07
2019-02-28T08:48:05.522Z,16.31
2019-02-28T08:49:07.216Z,16.33
2019-02-28T08:50:05.691Z,16.16
2019-02-28T08:51:05.711Z,16.04
2019-02-28T08:52:06.687Z,15.59
2019-02-28T08:53:05.822Z,15.88
2019-02-28T08:54:06.177Z,16.22
2019-02-28T08:55:07.747Z,16.68
2019-02-28T08:56:05.953Z,17.18
2019-02-28T08:57:06.021Z,17.66
2019-02-28T08:58:06.715Z,17.64
2019-02-28T08:59:11.834Z,16.81
2019-02-28T09:00:06.145Z,16.23
2019-02-28T09:01:06.646Z,16.41
2019-02-28T09:02:06.233Z,16.37
2019-02-28T09:03:06.288Z,16.25
2019-02-28T09:04:06.340Z,16.35
2019-02-28T09:05:06.786Z,16.37
2019-02-28T09:06:07.439Z,16.12
2019-02-28T09:07:06.501Z,16.04
2019-02-28T09:08:06.649Z,16.18
2019-02-28T09:09:06.596Z,16.12
2019-02-28T09:10:11.862Z,16.40
2019-02-28T09:11:06.743Z,16.62
2019-02-28T09:12:06.751Z,16.95
2019-02-28T09:13:08.610Z,16.88
2019-02-28T09:14:06.866Z,16.45
2019-02-28T09:15:06.950Z,16.03
2019-02-28T09:16:06.989Z,15.85
2019-02-28T09:17:07.030Z,15.64
2019-02-28T09:18:07.387Z,15.81
2019-02-28T09:19:07.123Z,15.79
2019-02-28T09:20:07.479Z,16.20
2019-02-28T09:21:07.214Z,15.96
2019-02-28T09:22:07.287Z,15.94
2019-02-28T09:23:07.328Z,15.86
2019-02-28T09:24:09.408Z,15.96
2019-02-28T09:25:07.524Z,16.34
2019-02-28T09:26:07.473Z,16.86
2019-02-28T09:27:07.544Z,16.33
2019-02-28T09:28:10.180Z,16.49
2019-02-28T09:29:07.634Z,16.98
2019-02-28T09:30:07.685Z,17.13
2019-02-28T09:31:07.735Z,17.14
2019-02-28T09:32:10.197Z,17.28
2019-02-28T09:33:07.852Z,17.26
2019-02-28T09:34:09.218Z,16.85
2019-02-28T09:35:11.938Z,16.77
2019-02-28T09:36:07.991Z,16.83
2019-02-28T09:37:08.063Z,17.11
2019-02-28T09:38:13.227Z,17.28
2019-02-28T09:39:08.145Z,17.35
2019-02-28T09:40:08.262Z,17.44
2019-02-28T09:41:08.266Z,17.50
2019-02-28T09:42:08.330Z,17.78
2019-02-28T09:43:08.386Z,17.91
2019-02-28T09:44:08.411Z,17.70
2019-02-28T09:45:08.466Z,18.00
2019-02-28T09:46:09.105Z,17.64
2019-02-28T09:47:11.595Z,17.62
2019-02-28T09:48:08.640Z,17.51
2019-02-28T09:49:12.042Z,17.32
2019-02-28T09:50:08.725Z,17.67
2019-02-28T09:51:08.784Z,17.64
2019-02-28T09:52:08.837Z,17.91
2019-02-28T09:53:08.912Z,18.18
2019-02-28T09:54:08.937Z,18.43
2019-02-28T09:55:08.988Z,18.73
2019-02-28T09:56:10.100Z,19.13
2019-02-28T09:57:09.211Z,19.24
2019-02-28T09:58:09.176Z,19.43
2019-02-28T09:59:09.201Z,19.50
2019-02-28T10:00:11.820Z,19.66
2019-02-28T10:01:09.324Z,19.63
2019-02-28T10:02:09.626Z,19.87
2019-02-28T10:03:09.438Z,20.08
2019-02-28T10:04:10.390Z,20.06
2019-02-28T10:05:11.531Z,20.12
2019-02-28T10:06:09.582Z,19.72
2019-02-28T10:07:09.671Z,19.83
2019-02-28T10:08:09.736Z,20.08
2019-02-28T10:09:09.762Z,20.30
2019-02-28T10:10:09.808Z,20.47
2019-02-28T10:11:09.855Z,20.66
2019-02-28T10:12:11.049Z,20.49
2019-02-28T10:13:09.961Z,20.64
2019-02-28T10:14:12.014Z,20.65
2019-02-28T10:15:10.076Z,20.80
2019-02-28T10:16:10.132Z,20.20
2019-02-28T10:17:10.178Z,19.01
2019-02-28T10:18:10.244Z,18.74
2019-02-28T10:19:13.258Z,18.57
2019-02-28T10:20:10.341Z,18.39
2019-02-28T10:21:10.408Z,18.27
2019-02-28T10:22:12.933Z,17.69
2019-02-28T10:23:10.509Z,17.38
2019-02-28T10:24:10.585Z,17.74
2019-02-28T10:25:10.685Z,18.22
2019-02-28T10:26:10.678Z,18.19
2019-02-28T10:27:10.739Z,18.46
2019-02-28T10:28:10.796Z,18.86
2019-02-28T10:29:10.854Z,19.32
2019-02-28T10:30:15.657Z,19.24
2019-02-28T10:31:10.955Z,19.48
2019-02-28T10:32:11.016Z,18.64
2019-02-28T10:33:11.060Z,18.55
2019-02-28T10:34:11.115Z,18.91
2019-02-28T10:35:11.187Z,19.25
2019-02-28T10:36:12.924Z,18.94
2019-02-28T10:37:11.277Z,18.90
2019-02-28T10:38:11.337Z,19.40
2019-02-28T10:39:11.391Z,19.73
2019-02-28T10:40:14.208Z,20.27
2019-02-28T10:41:11.511Z,20.28
2019-02-28T10:42:11.555Z,20.24
2019-02-28T10:43:12.100Z,20.46
2019-02-28T10:44:11.655Z,20.62
2019-02-28T10:45:11.738Z,20.51
2019-02-28T10:46:13.412Z,20.65
2019-02-28T10:47:11.832Z,20.80
2019-02-28T10:48:11.875Z,20.90
2019-02-28T10:49:11.929Z,20.89
2019-02-28T10:50:12.009Z,20.80
2019-02-28T10:51:13.962Z,20.61
2019-02-28T10:52:12.098Z,20.83
2019-02-28T10:53:12.151Z,20.65
2019-02-28T10:54:14.530Z,20.51
2019-02-28T10:55:12.270Z,20.66
2019-02-28T10:56:12.352Z,20.86
2019-02-28T10:57:12.390Z,21.09
2019-02-28T10:58:15.418Z,20.84
2019-02-28T10:59:12.488Z,20.77
2019-02-28T11:00:12.543Z,20.95
2019-02-28T11:01:12.635Z,21.19
2019-02-28T11:02:13.921Z,21.56
2019-02-28T11:03:12.715Z,21.42
2019-02-28T11:04:12.773Z,20.76
2019-02-28T11:05:15.315Z,20.61
2019-02-28T11:06:12.906Z,19.72
2019-02-28T11:07:13.076Z,19.11
2019-02-28T11:08:13.758Z,18.49
2019-02-28T11:09:13.042Z,18.19
2019-02-28T11:10:13.096Z,18.52
2019-02-28T11:11:13.176Z,18.46
2019-02-28T11:12:13.217Z,18.39
2019-02-28T11:13:13.262Z,18.04
2019-02-28T11:14:13.341Z,18.15
2019-02-28T11:15:14.026Z,18.46
2019-02-28T11:16:13.448Z,18.97
2019-02-28T11:17:13.872Z,19.14
2019-02-28T11:18:13.547Z,19.28
2019-02-28T11:19:13.874Z,19.66
2019-02-28T11:20:21.899Z,19.33
2019-02-28T11:21:13.751Z,19.11
2019-02-28T11:22:13.757Z,18.39
2019-02-28T11:23:15.067Z,18.19
2019-02-28T11:24:13.863Z,18.15
2019-02-28T11:25:14.040Z,18.37
2019-02-28T11:26:13.997Z,18.54
2019-02-28T11:27:16.146Z,18.47
2019-02-28T11:28:14.083Z,18.43
2019-02-28T11:29:14.145Z,18.18
2019-02-28T11:30:14.199Z,17.91
2019-02-28T11:31:16.373Z,17.76
2019-02-28T11:32:14.382Z,17.94
2019-02-28T11:33:14.362Z,17.92
2019-02-28T11:34:15.025Z,17.38
2019-02-28T11:35:14.459Z,17.30
2019-02-28T11:36:14.531Z,17.28
2019-02-28T11:37:14.602Z,17.44
2019-02-28T11:38:20.348Z,17.67
2019-02-28T11:39:14.676Z,17.38
2019-02-28T11:40:14.732Z,17.73
2019-02-28T11:41:15.555Z,18.03
2019-02-28T11:42:14.868Z,18.10
2019-02-28T11:43:15.009Z,18.39
2019-02-28T11:44:14.947Z,18.40
2019-02-28T11:45:15.018Z,18.19
2019-02-28T11:46:15.056Z,18.04
2019-02-28T11:47:15.154Z,17.88
2019-02-28T11:48:18.919Z,18.54
2019-02-28T11:49:15.230Z,19.14
2019-02-28T11:50:15.347Z,19.72
2019-02-28T11:51:17.629Z,19.53
2019-02-28T11:52:16.030Z,19.32
2019-02-28T11:53:15.428Z,19.51
2019-02-28T11:54:15.490Z,19.42
2019-02-28T11:55:16.849Z,19.83
2019-02-28T11:56:15.591Z,20.06
2019-02-28T11:57:15.676Z,20.33
2019-02-28T11:58:17.707Z,20.42
2019-02-28T11:59:15.765Z,20.64
2019-02-28T12:00:15.812Z,20.72
2019-02-28T12:01:15.869Z,20.83
2019-02-28T12:02:15.916Z,20.64
2019-02-28T12:03:16.001Z,20.80
2019-02-28T12:04:16.026Z,21.02
2019-02-28T12:05:16.550Z,21.09
2019-02-28T12:06:16.134Z,21.36
2019-02-28T12:07:16.185Z,21.46
2019-02-28T12:08:16.313Z,21.53
2019-02-28T12:09:19.101Z,21.75
2019-02-28T12:10:16.365Z,21.90
2019-02-28T12:11:16.407Z,21.97
2019-02-28T12:12:16.466Z,21.88
2019-02-28T12:13:19.632Z,22.04
2019-02-28T12:14:16.591Z,21.98
2019-02-28T12:15:16.630Z,22.04
2019-02-28T12:16:19.317Z,21.92
2019-02-28T12:17:16.744Z,22.02
2019-02-28T12:18:16.797Z,22.02
2019-02-28T12:19:16.884Z,22.31
2019-02-28T12:20:16.912Z,22.56
2019-02-28T12:21:16.967Z,22.75
2019-02-28T12:22:17.025Z,22.77
2019-02-28T12:23:17.097Z,22.90
2019-02-28T12:24:17.155Z,22.78
2019-02-28T12:25:17.193Z,22.83
2019-02-28T12:26:17.740Z,22.68
2019-02-28T12:27:17.315Z,22.59
2019-02-28T12:28:17.420Z,22.67
2019-02-28T12:29:18.299Z,22.60
2019-02-28T12:30:18.747Z,22.62
2019-02-28T12:31:17.540Z,22.62
2019-02-28T12:32:17.596Z,22.80
2019-02-28T12:33:19.101Z,22.82
2019-02-28T12:34:17.733Z,22.68
2019-02-28T12:35:17.762Z,22.65
2019-02-28T12:36:17.822Z,22.74
2019-02-28T12:37:17.877Z,22.68
2019-02-28T12:38:17.944Z,22.53
2019-02-28T12:39:18.086Z,22.59
2019-02-28T12:40:18.073Z,22.65
2019-02-28T12:41:18.121Z,22.28
2019-02-28T12:42:18.178Z,21.92
2019-02-28T12:43:18.235Z,21.92
2019-02-28T12:44:18.278Z,22.28
2019-02-28T12:45:21.201Z,22.43
2019-02-28T12:46:18.392Z,22.29
2019-02-28T12:47:18.448Z,22.20
2019-02-28T12:48:18.515Z,22.10
2019-02-28T12:49:21.815Z,22.16
2019-02-28T12:50:18.660Z,22.01
2019-02-28T12:51:18.679Z,22.04
2019-02-28T12:52:18.737Z,22.02
2019-02-28T12:53:24.288Z,22.06
2019-02-28T12:54:18.847Z,21.92
2019-02-28T12:55:18.928Z,21.92
2019-02-28T12:56:18.966Z,21.76
2019-02-28T12:57:19.324Z,21.98
2019-02-28T12:58:19.088Z,22.07
2019-02-28T12:59:19.146Z,22.04
2019-02-28T13:00:19.929Z,22.01
2019-02-28T13:01:19.264Z,22.17
2019-02-28T13:02:19.337Z,22.31
2019-02-28T13:03:20.218Z,22.23
2019-02-28T13:04:19.448Z,22.12
2019-02-28T13:05:19.507Z,21.92
2019-02-28T13:06:23.480Z,21.88
2019-02-28T13:07:19.624Z,21.72
2019-02-28T13:08:19.658Z,21.79